createdAt,value
2019-05-11T00:00:29.394Z,52.00
2019-05-11T00:01:31.415Z,48.00
2019-05-11T00:02:27.406Z,40.00
2019-05-11T00:03:28.406Z,36.00
2019-05-11T00:04:26.838Z,40.00
2019-05-11T00:05:26.851Z,36.00
2019-05-11T00:06:26.866Z,36.00
2019-05-11T00:07:29.905Z,40.00
2019-05-11T00:08:27.896Z,40.00
2019-05-11T00:09:26.960Z,44.00
2019-05-11T00:10:26.967Z,52.00
2019-05-11T00:11:27.901Z,56.00
2019-05-11T00:12:27.195Z,56.00
2019-05-11T00:13:26.983Z,60.00
2019-05-11T00:14:27.003Z,60.00
2019-05-11T00:15:27.021Z,52.00
2019-05-11T00:16:27.032Z,48.00
2019-05-11T00:17:27.048Z,44.00
2019-05-11T00:18:27.067Z,48.00
2019-05-11T00:19:27.083Z,48.00
2019-05-11T00:20:27.099Z,52.00
2019-05-11T00:21:27.120Z,64.00
2019-05-11T00:22:27.130Z,76.00
2019-05-11T00:23:27.164Z,92.00
2019-05-11T00:24:29.389Z,96.00
2019-05-11T00:25:27.183Z,92.00
2019-05-11T00:26:27.201Z,104.00
2019-05-11T00:27:27.214Z,128.00
2019-05-11T00:28:27.234Z,144.00
2019-05-11T00:29:27.293Z,144.00
2019-05-11T00:30:27.265Z,148.00
2019-05-11T00:31:27.280Z,144.00
2019-05-11T00:32:27.309Z,136.00
2019-05-11T00:33:27.321Z,136.00
2019-05-11T00:34:27.329Z,148.00
2019-05-11T00:35:27.347Z,148.00
2019-05-11T00:36:27.363Z,152.00
2019-05-11T00:37:27.382Z,160.00
2019-05-11T00:38:27.396Z,164.00
2019-05-11T00:39:27.413Z,180.00
2019-05-11T00:40:27.432Z,200.00
2019-05-11T00:41:27.448Z,200.00
2019-05-11T00:42:27.463Z,188.00
2019-05-11T00:43:27.478Z,176.00
2019-05-11T00:44:27.500Z,156.00
2019-05-11T00:45:27.517Z,144.00
2019-05-11T00:46:27.534Z,140.00
2019-05-11T00:47:27.557Z,136.00
2019-05-11T00:48:27.564Z,132.00
2019-05-11T00:49:27.589Z,136.00
2019-05-11T00:50:38.782Z,140.00
2019-05-11T00:51:27.615Z,148.00
2019-05-11T00:52:27.635Z,168.00
2019-05-11T00:53:27.647Z,184.00
2019-05-11T00:54:27.662Z,192.00
2019-05-11T00:55:27.684Z,200.00
2019-05-11T00:56:27.701Z,220.00
2019-05-11T00:57:27.715Z,224.00
2019-05-11T00:58:27.730Z,212.00
2019-05-11T00:59:27.747Z,212.00
2019-05-11T01:00:27.765Z,208.00
2019-05-11T01:01:27.780Z,216.00
2019-05-11T01:02:27.797Z,216.00
2019-05-11T01:03:27.814Z,200.00
2019-05-11T01:04:27.854Z,184.00
2019-05-11T01:05:27.850Z,184.00
2019-05-11T01:06:27.867Z,176.00
2019-05-11T01:07:27.884Z,168.00
2019-05-11T01:08:27.898Z,176.00
2019-05-11T01:09:27.914Z,196.00
2019-05-11T01:10:41.139Z,216.00
2019-05-11T01:11:27.950Z,244.00
2019-05-11T01:12:27.967Z,272.00
2019-05-11T01:13:27.981Z,284.00
2019-05-11T01:14:27.998Z,260.00
2019-05-11T01:15:28.021Z,232.00
2019-05-11T01:16:28.030Z,224.00
2019-05-11T01:17:28.050Z,224.00
2019-05-11T01:18:28.066Z,240.00
2019-05-11T01:19:28.085Z,228.00
2019-05-11T01:20:28.106Z,240.00
2019-05-11T01:21:28.115Z,244.00
2019-05-11T01:22:28.133Z,252.00
2019-05-11T01:23:28.150Z,240.00
2019-05-11T01:24:28.164Z,208.00
2019-05-11T01:25:28.184Z,176.00
2019-05-11T01:26:28.198Z,172.00
2019-05-11T01:27:28.218Z,188.00
2019-05-11T01:28:28.231Z,196.00
2019-05-11T01:29:28.254Z,200.00
2019-05-11T01:30:28.266Z,228.00
2019-05-11T01:31:28.283Z,224.00
2019-05-11T01:32:28.298Z,220.00
2019-05-11T01:33:28.317Z,228.00
2019-05-11T01:34:28.341Z,244.00
2019-05-11T01:35:28.370Z,260.00
2019-05-11T01:36:28.364Z,264.00
2019-05-11T01:37:28.383Z,284.00
2019-05-11T01:38:28.401Z,276.00
2019-05-11T01:39:28.415Z,264.00
2019-05-11T01:40:28.430Z,256.00
2019-05-11T01:41:28.455Z,248.00
2019-05-11T01:42:28.466Z,268.00
2019-05-11T01:43:28.485Z,264.00
2019-05-11T01:44:28.501Z,260.00
2019-05-11T01:45:28.518Z,260.00
2019-05-11T01:46:28.534Z,248.00
2019-05-11T01:47:28.556Z,240.00
2019-05-11T01:48:28.563Z,248.00
2019-05-11T01:49:28.590Z,268.00
2019-05-11T01:50:28.601Z,304.00
2019-05-11T01:51:28.620Z,320.00
2019-05-11T01:52:28.644Z,340.00
2019-05-11T01:53:28.651Z,340.00
2019-05-11T01:54:28.674Z,360.00
2019-05-11T01:55:28.687Z,368.00
2019-05-11T01:56:28.699Z,372.00
2019-05-11T01:57:28.723Z,344.00
2019-05-11T01:58:28.733Z,356.00
2019-05-11T01:59:28.751Z,392.00
2019-05-11T02:00:28.774Z,420.00
2019-05-11T02:01:28.784Z,424.00
2019-05-11T02:02:28.802Z,412.00
2019-05-11T02:03:28.835Z,404.00
2019-05-11T02:04:28.831Z,428.00
2019-05-11T02:05:28.850Z,444.00
2019-05-11T02:06:28.865Z,500.00
2019-05-11T02:07:28.883Z,536.00
2019-05-11T02:08:28.908Z,556.00
2019-05-11T02:09:28.926Z,516.00
2019-05-11T02:10:28.934Z,496.00
2019-05-11T02:11:28.951Z,468.00
2019-05-11T02:12:28.975Z,448.00
2019-05-11T02:13:28.990Z,412.00
2019-05-11T02:14:29.005Z,456.00
2019-05-11T02:15:29.013Z,444.00
2019-05-11T02:16:29.036Z,464.00
2019-05-11T02:17:29.053Z,564.00
2019-05-11T02:18:29.070Z,632.00
2019-05-11T02:19:29.087Z,660.00
2019-05-11T02:20:29.104Z,676.00
2019-05-11T02:21:29.131Z,616.00
2019-05-11T02:22:29.135Z,612.00
2019-05-11T02:23:29.151Z,640.00
2019-05-11T02:24:29.168Z,632.00
2019-05-11T02:25:29.185Z,616.00
2019-05-11T02:26:29.201Z,576.00
2019-05-11T02:27:29.219Z,544.00
2019-05-11T02:28:29.237Z,512.00
2019-05-11T02:29:29.259Z,532.00
2019-05-11T02:30:29.281Z,524.00
2019-05-11T02:31:29.396Z,516.00
2019-05-11T02:32:29.304Z,464.00
2019-05-11T02:33:29.336Z,416.00
2019-05-11T02:34:29.350Z,416.00
2019-05-11T02:35:29.359Z,480.00
2019-05-11T02:36:29.372Z,548.00
2019-05-11T02:37:29.393Z,588.00
2019-05-11T02:38:29.408Z,636.00
2019-05-11T02:39:29.429Z,632.00
2019-05-11T02:40:29.454Z,600.00
2019-05-11T02:41:36.167Z,560.00
2019-05-11T02:42:29.477Z,576.00
2019-05-11T02:43:29.499Z,640.00
2019-05-11T02:44:29.513Z,660.00
2019-05-11T02:45:29.531Z,728.00
2019-05-11T02:46:29.544Z,724.00
2019-05-11T02:47:29.559Z,788.00
2019-05-11T02:48:29.577Z,884.00
2019-05-11T02:49:29.629Z,968.00
2019-05-11T02:50:29.617Z,1072.00
2019-05-11T02:51:29.632Z,1128.00
2019-05-11T02:52:29.659Z,1140.00
2019-05-11T02:53:29.668Z,1128.00
2019-05-11T02:54:29.689Z,1084.00
2019-05-11T02:55:29.698Z,1028.00
2019-05-11T02:56:29.722Z,1000.00
2019-05-11T02:57:29.730Z,952.00
2019-05-11T02:58:29.744Z,872.00
2019-05-11T02:59:30.156Z,772.00
2019-05-11T03:00:29.787Z,752.00
2019-05-11T03:01:29.797Z,620.00
2019-05-11T03:02:29.821Z,672.00
2019-05-11T03:03:29.845Z,692.00
2019-05-11T03:04:29.852Z,776.00
2019-05-11T03:05:29.875Z,884.00
2019-05-11T03:06:29.885Z,984.00
2019-05-11T03:07:29.911Z,1044.00
2019-05-11T03:08:29.947Z,1072.00
2019-05-11T03:09:29.940Z,1056.00
2019-05-11T03:10:29.957Z,1076.00
2019-05-11T03:11:29.966Z,1088.00
2019-05-11T03:12:29.989Z,1124.00
2019-05-11T03:13:30.006Z,1160.00
2019-05-11T03:14:30.026Z,1156.00
2019-05-11T03:15:30.047Z,1152.00
2019-05-11T03:16:30.051Z,1116.00
2019-05-11T03:17:30.072Z,1104.00
2019-05-11T03:18:30.086Z,1132.00
2019-05-11T03:19:30.114Z,1132.00
2019-05-11T03:20:30.129Z,996.00
2019-05-11T03:21:30.141Z,884.00
2019-05-11T03:22:30.168Z,804.00
2019-05-11T03:23:30.182Z,796.00
2019-05-11T03:24:30.203Z,912.00
2019-05-11T03:25:30.209Z,996.00
2019-05-11T03:26:30.227Z,956.00
2019-05-11T03:27:30.245Z,880.00
2019-05-11T03:28:30.266Z,868.00
2019-05-11T03:29:30.284Z,880.00
2019-05-11T03:30:30.314Z,908.00
2019-05-11T03:31:30.321Z,932.00
2019-05-11T03:32:30.333Z,972.00
2019-05-11T03:33:30.391Z,1000.00
2019-05-11T03:34:30.370Z,1024.00
2019-05-11T03:35:30.383Z,1052.00
2019-05-11T03:36:30.423Z,1048.00
2019-05-11T03:37:30.431Z,996.00
2019-05-11T03:38:30.438Z,912.00
2019-05-11T03:39:30.463Z,856.00
2019-05-11T03:40:30.476Z,856.00
2019-05-11T03:41:30.488Z,828.00
2019-05-11T03:42:30.516Z,808.00
2019-05-11T03:43:30.531Z,828.00
2019-05-11T03:44:30.545Z,872.00
2019-05-11T03:45:30.565Z,920.00
2019-05-11T03:46:30.643Z,916.00
2019-05-11T03:47:30.593Z,864.00
2019-05-11T03:48:30.618Z,792.00
2019-05-11T03:49:30.634Z,676.00
2019-05-11T03:50:30.655Z,544.00
2019-05-11T03:51:30.666Z,500.00
2019-05-11T03:52:30.691Z,504.00
2019-05-11T03:53:30.707Z,580.00
2019-05-11T03:54:30.721Z,768.00
2019-05-11T03:55:30.813Z,912.00
2019-05-11T03:56:30.759Z,912.00
2019-05-11T03:57:30.777Z,840.00
2019-05-11T03:58:30.797Z,716.00
2019-05-11T03:59:30.809Z,600.00
2019-05-11T04:00:30.837Z,564.00
2019-05-11T04:01:30.853Z,616.00
2019-05-11T04:02:30.861Z,808.00
2019-05-11T04:03:30.880Z,1100.00
2019-05-11T04:04:30.904Z,1216.00
2019-05-11T04:05:30.931Z,1188.00
2019-05-11T04:06:30.931Z,1060.00
2019-05-11T04:07:30.949Z,900.00
2019-05-11T04:08:30.969Z,736.00
2019-05-11T04:09:30.993Z,616.00
2019-05-11T04:10:31.009Z,556.00
2019-05-11T04:11:31.025Z,556.00
2019-05-11T04:12:35.243Z,572.00
2019-05-11T04:13:31.059Z,580.00
2019-05-11T04:14:31.075Z,596.00
2019-05-11T04:15:31.095Z,644.00
2019-05-11T04:16:31.120Z,704.00
2019-05-11T04:17:31.127Z,764.00
2019-05-11T04:18:31.152Z,852.00
2019-05-11T04:19:31.160Z,912.00
2019-05-11T04:20:31.210Z,1012.00
2019-05-11T04:21:31.198Z,1052.00
2019-05-11T04:22:31.217Z,996.00
2019-05-11T04:23:31.232Z,888.00
2019-05-11T04:24:31.255Z,852.00
2019-05-11T04:25:31.274Z,844.00
2019-05-11T04:26:31.285Z,908.00
2019-05-11T04:27:31.304Z,920.00
2019-05-11T04:28:31.328Z,920.00
2019-05-11T04:29:31.344Z,924.00
2019-05-11T04:30:31.358Z,960.00
2019-05-11T04:31:31.380Z,1008.00
2019-05-11T04:32:31.395Z,1044.00
2019-05-11T04:33:33.221Z,1040.00
2019-05-11T04:34:31.431Z,1040.00
2019-05-11T04:35:31.447Z,1004.00
2019-05-11T04:36:31.466Z,944.00
2019-05-11T04:37:31.491Z,1016.00
2019-05-11T04:38:31.507Z,1040.00
2019-05-11T04:39:31.521Z,988.00
2019-05-11T04:40:31.542Z,964.00
2019-05-11T04:41:31.568Z,952.00
2019-05-11T04:42:31.574Z,976.00
2019-05-11T04:43:31.594Z,1056.00
2019-05-11T04:44:31.621Z,1144.00
2019-05-11T04:45:31.627Z,1196.00
2019-05-11T04:46:31.644Z,1212.00
2019-05-11T04:47:31.664Z,1160.00
2019-05-11T04:48:31.681Z,1088.00
2019-05-11T04:49:31.707Z,1064.00
2019-05-11T04:50:31.722Z,1108.00
2019-05-11T04:51:31.737Z,1168.00
2019-05-11T04:52:31.751Z,1204.00
2019-05-11T04:53:31.771Z,1228.00
2019-05-11T04:54:31.797Z,1200.00
2019-05-11T04:55:31.818Z,1120.00
2019-05-11T04:56:31.826Z,1052.00
2019-05-11T04:57:31.846Z,992.00
2019-05-11T04:58:31.866Z,960.00
2019-05-11T04:59:31.881Z,948.00
2019-05-11T05:00:31.903Z,928.00
2019-05-11T05:01:31.920Z,904.00
2019-05-11T05:02:31.938Z,888.00
2019-05-11T05:03:40.480Z,892.00
2019-05-11T05:04:31.972Z,892.00
2019-05-11T05:05:31.992Z,900.00
2019-05-11T05:06:32.007Z,904.00
2019-05-11T05:07:32.028Z,924.00
2019-05-11T05:08:32.044Z,960.00
2019-05-11T05:09:36.177Z,968.00
2019-05-11T05:10:32.080Z,952.00
2019-05-11T05:11:36.640Z,932.00
2019-05-11T05:12:32.118Z,892.00
2019-05-11T05:13:32.136Z,824.00
2019-05-11T05:14:32.153Z,844.00
2019-05-11T05:15:32.189Z,844.00
2019-05-11T05:16:32.190Z,840.00
2019-05-11T05:17:32.215Z,792.00
2019-05-11T05:18:32.226Z,716.00
2019-05-11T05:19:32.245Z,636.00
2019-05-11T05:20:32.262Z,596.00
2019-05-11T05:21:32.279Z,576.00
2019-05-11T05:22:32.299Z,572.00
2019-05-11T05:23:32.313Z,592.00
2019-05-11T05:24:32.337Z,600.00
2019-05-11T05:25:32.360Z,608.00
2019-05-11T05:26:32.379Z,580.00
2019-05-11T05:27:32.395Z,512.00
2019-05-11T05:28:32.409Z,472.00
2019-05-11T05:29:32.427Z,488.00
2019-05-11T05:30:32.445Z,536.00
2019-05-11T05:31:32.468Z,548.00
2019-05-11T05:32:32.480Z,532.00
2019-05-11T05:33:32.499Z,552.00
2019-05-11T05:34:32.514Z,616.00
2019-05-11T05:35:32.538Z,716.00
2019-05-11T05:36:32.562Z,784.00
2019-05-11T05:37:32.570Z,836.00
2019-05-11T05:38:32.591Z,860.00
2019-05-11T05:39:32.610Z,776.00
2019-05-11T05:40:32.627Z,756.00
2019-05-11T05:41:32.645Z,840.00
2019-05-11T05:42:32.664Z,860.00
2019-05-11T05:43:32.685Z,852.00
2019-05-11T05:44:32.697Z,840.00
2019-05-11T05:45:32.719Z,912.00
2019-05-11T05:46:32.736Z,948.00
2019-05-11T05:47:32.751Z,940.00
2019-05-11T05:48:32.773Z,936.00
2019-05-11T05:49:32.787Z,944.00
2019-05-11T05:50:32.804Z,964.00
2019-05-11T05:51:32.854Z,1004.00
2019-05-11T05:52:32.846Z,1008.00
2019-05-11T05:53:32.860Z,992.00
2019-05-11T05:54:32.877Z,1012.00
2019-05-11T05:55:32.894Z,1068.00
2019-05-11T05:56:32.920Z,1140.00
2019-05-11T05:57:32.929Z,1204.00
2019-05-11T05:58:33.005Z,1220.00
2019-05-11T05:59:32.965Z,1188.00
2019-05-11T06:00:33.003Z,1124.00
2019-05-11T06:01:33.005Z,1080.00
2019-05-11T06:02:33.020Z,1064.00
2019-05-11T06:03:33.042Z,1080.00
2019-05-11T06:04:33.059Z,1080.00
2019-05-11T06:05:33.075Z,1032.00
2019-05-11T06:06:33.125Z,1004.00
2019-05-11T06:07:33.110Z,980.00
2019-05-11T06:08:33.133Z,960.00
2019-05-11T06:09:33.151Z,968.00
2019-05-11T06:10:33.164Z,984.00
2019-05-11T06:11:33.186Z,980.00
2019-05-11T06:12:33.218Z,932.00
2019-05-11T06:13:44.632Z,852.00
2019-05-11T06:14:33.250Z,784.00
2019-05-11T06:15:33.262Z,796.00
2019-05-11T06:16:33.300Z,808.00
2019-05-11T06:17:33.294Z,884.00
2019-05-11T06:18:33.318Z,956.00
2019-05-11T06:19:33.328Z,992.00
2019-05-11T06:20:33.367Z,1012.00
2019-05-11T06:21:33.369Z,1024.00
2019-05-11T06:22:33.386Z,1024.00
2019-05-11T06:23:33.403Z,1004.00
2019-05-11T06:24:33.480Z,936.00
2019-05-11T06:25:33.488Z,844.00
2019-05-11T06:26:33.456Z,772.00
2019-05-11T06:27:33.483Z,728.00
2019-05-11T06:28:33.497Z,712.00
2019-05-11T06:29:33.511Z,720.00
2019-05-11T06:30:33.530Z,720.00
2019-05-11T06:31:33.563Z,736.00
2019-05-11T06:32:33.584Z,780.00
2019-05-11T06:33:33.584Z,832.00
2019-05-11T06:34:33.629Z,864.00
2019-05-11T06:35:33.622Z,952.00
2019-05-11T06:36:33.639Z,976.00
2019-05-11T06:37:33.661Z,984.00
2019-05-11T06:38:33.675Z,988.00
2019-05-11T06:39:33.696Z,960.00
2019-05-11T06:40:33.715Z,960.00
2019-05-11T06:41:33.731Z,956.00
2019-05-11T06:42:33.753Z,928.00
2019-05-11T06:43:33.804Z,892.00
2019-05-11T06:44:33.786Z,892.00
2019-05-11T06:45:33.821Z,852.00
2019-05-11T06:46:35.144Z,820.00
2019-05-11T06:47:33.845Z,820.00
2019-05-11T06:48:33.859Z,812.00
2019-05-11T06:49:33.888Z,792.00
2019-05-11T06:50:33.900Z,804.00
2019-05-11T06:51:33.918Z,924.00
2019-05-11T06:52:33.941Z,1040.00
2019-05-11T06:53:33.956Z,1200.00
2019-05-11T06:54:33.980Z,1296.00
2019-05-11T06:55:33.991Z,1268.00
2019-05-11T06:56:34.013Z,1228.00
2019-05-11T06:57:34.030Z,1144.00
2019-05-11T06:58:34.050Z,1012.00
2019-05-11T06:59:34.080Z,932.00
2019-05-11T07:00:34.100Z,860.00
2019-05-11T07:01:34.113Z,812.00
2019-05-11T07:02:34.121Z,772.00
2019-05-11T07:03:34.142Z,776.00
2019-05-11T07:04:34.159Z,828.00
2019-05-11T07:05:34.182Z,872.00
2019-05-11T07:06:34.205Z,880.00
2019-05-11T07:07:46.431Z,872.00
2019-05-11T07:08:34.238Z,888.00
2019-05-11T07:09:34.262Z,876.00
2019-05-11T07:10:34.277Z,868.00
2019-05-11T07:11:34.292Z,836.00
2019-05-11T07:12:34.310Z,808.00
2019-05-11T07:13:34.365Z,828.00
2019-05-11T07:14:34.352Z,828.00
2019-05-11T07:15:34.368Z,876.00
2019-05-11T07:16:34.399Z,948.00
2019-05-11T07:17:34.412Z,856.00
2019-05-11T07:18:34.446Z,704.00
2019-05-11T07:19:34.447Z,620.00
2019-05-11T07:20:49.165Z,580.00
2019-05-11T07:21:34.486Z,508.00
2019-05-11T07:22:34.501Z,480.00
2019-05-11T07:23:34.521Z,484.00
2019-05-11T07:24:34.540Z,520.00
2019-05-11T07:25:34.558Z,592.00
2019-05-11T07:26:34.579Z,664.00
2019-05-11T07:27:34.599Z,692.00
2019-05-11T07:28:34.616Z,700.00
2019-05-11T07:29:34.636Z,760.00
2019-05-11T07:30:34.656Z,792.00
2019-05-11T07:31:34.677Z,732.00
2019-05-11T07:32:34.690Z,688.00
2019-05-11T07:33:34.711Z,664.00
2019-05-11T07:34:34.736Z,632.00
2019-05-11T07:35:34.747Z,612.00
2019-05-11T07:36:34.767Z,596.00
2019-05-11T07:37:34.916Z,572.00
2019-05-11T07:38:34.806Z,572.00
2019-05-11T07:39:34.829Z,584.00
2019-05-11T07:40:34.842Z,580.00
2019-05-11T07:41:34.862Z,560.00
2019-05-11T07:42:34.885Z,552.00
2019-05-11T07:43:34.903Z,544.00
2019-05-11T07:44:38.676Z,540.00
2019-05-11T07:45:34.939Z,556.00
2019-05-11T07:46:34.961Z,548.00
2019-05-11T07:47:34.984Z,484.00
2019-05-11T07:48:34.996Z,448.00
2019-05-11T07:49:35.016Z,432.00
2019-05-11T07:50:35.034Z,428.00
2019-05-11T07:51:35.060Z,424.00
2019-05-11T07:52:35.075Z,420.00
2019-05-11T07:53:35.094Z,408.00
2019-05-11T07:54:35.116Z,412.00
2019-05-11T07:55:35.145Z,432.00
2019-05-11T07:56:35.151Z,488.00
2019-05-11T07:57:35.173Z,508.00
2019-05-11T07:58:35.191Z,484.00
2019-05-11T07:59:35.212Z,448.00
2019-05-11T08:00:37.493Z,444.00
2019-05-11T08:01:35.246Z,448.00
2019-05-11T08:02:35.274Z,464.00
2019-05-11T08:03:35.283Z,464.00
2019-05-11T08:04:37.702Z,476.00
2019-05-11T08:05:35.322Z,488.00
2019-05-11T08:06:35.337Z,524.00
2019-05-11T08:07:37.682Z,568.00
2019-05-11T08:08:35.377Z,596.00
2019-05-11T08:09:37.863Z,600.00
2019-05-11T08:10:35.414Z,564.00
2019-05-11T08:11:35.439Z,540.00
2019-05-11T08:12:35.461Z,532.00
2019-05-11T08:13:35.477Z,548.00
2019-05-11T08:14:55.164Z,584.00
2019-05-11T08:15:35.516Z,620.00
2019-05-11T08:16:35.532Z,664.00
2019-05-11T08:17:37.933Z,688.00
2019-05-11T08:18:35.568Z,732.00
2019-05-11T08:19:35.585Z,780.00
2019-05-11T08:20:35.606Z,824.00
2019-05-11T08:21:35.626Z,808.00
2019-05-11T08:22:37.749Z,776.00
2019-05-11T08:23:37.690Z,788.00
2019-05-11T08:24:37.774Z,892.00
2019-05-11T08:25:37.840Z,980.00
2019-05-11T08:26:35.723Z,1048.00
2019-05-11T08:27:37.733Z,1120.00
2019-05-11T08:28:37.900Z,1116.00
2019-05-11T08:29:38.219Z,1080.00
2019-05-11T08:30:37.996Z,1040.00
2019-05-11T08:31:38.266Z,1080.00
2019-05-11T08:32:35.836Z,1052.00
2019-05-11T08:33:35.857Z,1028.00
2019-05-11T08:34:35.887Z,1028.00
2019-05-11T08:35:35.909Z,1040.00
2019-05-11T08:36:37.840Z,1072.00
2019-05-11T08:37:35.936Z,1096.00
2019-05-11T08:38:37.791Z,1120.00
2019-05-11T08:39:37.952Z,1124.00
2019-05-11T08:40:37.916Z,1140.00
2019-05-11T08:41:38.223Z,1128.00
2019-05-11T08:42:37.819Z,1016.00
2019-05-11T08:43:36.049Z,952.00
2019-05-11T08:44:37.995Z,796.00
2019-05-11T08:45:36.091Z,760.00
2019-05-11T08:46:38.385Z,780.00
2019-05-11T08:47:37.709Z,772.00
2019-05-11T08:48:38.613Z,752.00
2019-05-11T08:49:38.092Z,756.00
2019-05-11T08:50:38.242Z,772.00
2019-05-11T08:51:38.521Z,712.00
2019-05-11T08:52:38.427Z,628.00
2019-05-11T08:53:38.553Z,588.00
2019-05-11T08:54:38.176Z,556.00
2019-05-11T08:55:38.140Z,536.00
2019-05-11T08:56:38.282Z,524.00
2019-05-11T08:57:38.534Z,532.00
2019-05-11T08:58:38.031Z,568.00
2019-05-11T08:59:38.110Z,600.00
2019-05-11T09:00:38.762Z,632.00
2019-05-11T09:01:36.403Z,620.00
2019-05-11T09:02:38.293Z,628.00
2019-05-11T09:03:38.548Z,656.00
2019-05-11T09:04:39.455Z,704.00
2019-05-11T09:05:38.478Z,736.00
2019-05-11T09:06:37.629Z,712.00
2019-05-11T09:07:38.424Z,684.00
2019-05-11T09:08:38.791Z,688.00
2019-05-11T09:09:37.990Z,628.00
2019-05-11T09:10:39.290Z,600.00
2019-05-11T09:11:38.805Z,588.00
2019-05-11T09:12:38.194Z,576.00
2019-05-11T09:13:36.634Z,560.00
2019-05-11T09:14:38.757Z,568.00
2019-05-11T09:15:40.256Z,588.00
2019-05-11T09:16:38.354Z,616.00
2019-05-11T09:17:38.201Z,652.00
2019-05-11T09:18:38.555Z,676.00
2019-05-11T09:19:38.828Z,672.00
2019-05-11T09:20:37.834Z,636.00
2019-05-11T09:21:38.275Z,568.00
2019-05-11T09:22:38.132Z,536.00
2019-05-11T09:23:40.331Z,516.00
2019-05-11T09:24:38.628Z,500.00
2019-05-11T09:25:38.495Z,496.00
2019-05-11T09:26:38.914Z,504.00
2019-05-11T09:27:37.600Z,536.00
2019-05-11T09:28:38.422Z,524.00
2019-05-11T09:29:38.697Z,552.00
2019-05-11T09:30:37.805Z,560.00
2019-05-11T09:31:38.172Z,576.00
2019-05-11T09:32:38.514Z,572.00
2019-05-11T09:33:38.596Z,568.00
2019-05-11T09:34:37.783Z,568.00
2019-05-11T09:35:47.532Z,560.00
2019-05-11T09:36:38.878Z,560.00
2019-05-11T09:37:38.057Z,568.00
2019-05-11T09:38:38.341Z,560.00
2019-05-11T09:39:38.286Z,544.00
2019-05-11T09:40:38.579Z,528.00
2019-05-11T09:41:38.343Z,528.00
2019-05-11T09:42:38.848Z,520.00
2019-05-11T09:43:37.713Z,500.00
2019-05-11T09:44:37.977Z,484.00
2019-05-11T09:45:47.953Z,468.00
2019-05-11T09:46:38.450Z,472.00
2019-05-11T09:47:38.659Z,476.00
2019-05-11T09:48:37.990Z,468.00
2019-05-11T09:49:46.622Z,452.00
2019-05-11T09:50:38.793Z,436.00
2019-05-11T09:51:38.120Z,408.00
2019-05-11T09:52:38.439Z,372.00
2019-05-11T09:53:38.895Z,352.00
2019-05-11T09:54:38.204Z,336.00
2019-05-11T09:55:38.868Z,316.00
2019-05-11T09:56:38.244Z,276.00
2019-05-11T09:57:38.186Z,232.00
2019-05-11T09:58:38.638Z,200.00
2019-05-11T09:59:38.481Z,188.00
2019-05-11T10:00:38.831Z,188.00
2019-05-11T10:01:37.919Z,184.00
2019-05-11T10:02:38.475Z,176.00
2019-05-11T10:03:38.750Z,172.00
2019-05-11T10:04:38.141Z,176.00
2019-05-11T10:05:38.400Z,164.00
2019-05-11T10:06:38.795Z,152.00
2019-05-11T10:07:38.224Z,140.00
2019-05-11T10:08:38.192Z,124.00
2019-05-11T10:09:38.329Z,100.00
2019-05-11T10:10:38.478Z,84.00
2019-05-11T10:11:39.866Z,64.00
2019-05-11T10:12:38.140Z,52.00
2019-05-11T10:13:38.500Z,48.00
2019-05-11T10:14:38.082Z,40.00
2019-05-11T10:15:38.554Z,40.00
2019-05-11T10:16:38.622Z,36.00
2019-05-11T10:17:38.392Z,40.00
2019-05-11T10:18:38.574Z,40.00
2019-05-11T10:19:39.597Z,48.00
2019-05-11T10:20:39.190Z,68.00
2019-05-11T10:21:38.553Z,76.00
2019-05-11T10:22:38.570Z,88.00
2019-05-11T10:23:38.692Z,96.00
2019-05-11T10:24:38.608Z,100.00
2019-05-11T10:25:39.062Z,112.00
2019-05-11T10:26:38.566Z,116.00
2019-05-11T10:27:38.437Z,108.00
2019-05-11T10:28:38.928Z,96.00
2019-05-11T10:29:38.361Z,88.00
2019-05-11T10:30:38.667Z,80.00
2019-05-11T10:31:38.702Z,84.00
2019-05-11T10:32:38.182Z,84.00
2019-05-11T10:33:38.388Z,80.00
2019-05-11T10:34:38.725Z,80.00
2019-05-11T10:35:38.229Z,72.00
2019-05-11T10:36:38.624Z,80.00
2019-05-11T10:37:39.029Z,76.00
2019-05-11T10:38:38.282Z,76.00
2019-05-11T10:39:38.459Z,68.00
2019-05-11T10:40:38.837Z,64.00
2019-05-11T10:41:38.854Z,64.00
2019-05-11T10:42:38.359Z,64.00
2019-05-11T10:43:38.408Z,64.00
2019-05-11T10:44:38.644Z,64.00
2019-05-11T10:45:38.421Z,72.00
2019-05-11T10:46:38.439Z,76.00
2019-05-11T10:47:38.473Z,64.00
2019-05-11T10:48:39.014Z,52.00
2019-05-11T10:49:38.503Z,40.00
2019-05-11T10:50:38.512Z,28.00
2019-05-11T10:51:38.557Z,20.00
2019-05-11T10:52:38.552Z,20.00
2019-05-11T10:53:38.616Z,16.00
2019-05-11T10:54:40.061Z,16.00
2019-05-11T10:55:38.886Z,12.00
2019-05-11T10:56:39.010Z,12.00
2019-05-11T10:57:38.978Z,12.00
2019-05-11T10:58:38.666Z,16.00
2019-05-11T10:59:38.901Z,12.00
2019-05-11T11:00:39.717Z,12.00
2019-05-11T11:01:38.729Z,12.00
2019-05-11T11:02:38.750Z,12.00
2019-05-11T11:03:38.760Z,12.00
2019-05-11T11:04:38.784Z,12.00
2019-05-11T11:05:38.809Z,12.00
2019-05-11T11:06:38.924Z,12.00
2019-05-11T11:07:38.844Z,12.00
2019-05-11T11:08:38.860Z,12.00
2019-05-11T11:09:38.877Z,12.00
2019-05-11T11:10:38.897Z,8.00
2019-05-11T11:11:38.922Z,8.00
2019-05-11T11:12:38.937Z,4.00
2019-05-11T11:13:38.953Z,8.00
2019-05-11T11:14:38.974Z,8.00
2019-05-11T11:15:38.994Z,8.00
2019-05-11T11:16:42.748Z,4.00
2019-05-11T11:17:39.032Z,4.00
2019-05-11T11:18:39.052Z,8.00
2019-05-11T11:19:39.074Z,4.00
2019-05-11T11:20:39.087Z,4.00
2019-05-11T11:21:39.106Z,4.00
2019-05-11T11:22:42.975Z,4.00
2019-05-11T11:23:39.149Z,4.00
2019-05-11T11:24:39.166Z,4.00
2019-05-11T11:25:39.181Z,4.00
2019-05-11T11:26:39.202Z,4.00
2019-05-11T11:27:39.224Z,4.00
2019-05-11T11:28:39.240Z,4.00
2019-05-11T11:29:39.264Z,0.00
2019-05-11T11:30:39.283Z,0.00
2019-05-11T11:31:39.297Z,0.00
2019-05-11T11:32:39.316Z,0.00
2019-05-11T11:33:39.339Z,0.00
2019-05-11T11:34:39.405Z,0.00
2019-05-11T11:35:39.373Z,0.00
2019-05-11T11:36:39.399Z,4.00
2019-05-11T11:37:39.415Z,0.00
2019-05-11T11:38:39.432Z,4.00
2019-05-11T11:39:39.458Z,4.00
2019-05-11T11:40:42.719Z,0.00
2019-05-11T11:41:39.579Z,4.00
2019-05-11T11:42:39.510Z,4.00
2019-05-11T11:43:39.532Z,4.00
2019-05-11T11:44:39.546Z,4.00
2019-05-11T11:45:39.570Z,4.00
2019-05-11T11:46:50.772Z,4.00
2019-05-11T11:47:39.607Z,4.00
2019-05-11T11:48:39.625Z,4.00
2019-05-11T11:49:39.643Z,4.00
2019-05-11T11:50:39.659Z,4.00
2019-05-11T11:51:39.702Z,4.00
2019-05-11T11:52:39.704Z,0.00
2019-05-11T11:53:39.717Z,4.00
2019-05-11T11:54:39.741Z,0.00
2019-05-11T11:55:39.765Z,0.00
2019-05-11T11:56:39.777Z,4.00
2019-05-11T11:57:39.866Z,4.00
2019-05-11T11:58:39.839Z,4.00
2019-05-11T11:59:39.839Z,4.00
2019-05-11T12:00:39.852Z,4.00
2019-05-11T12:01:39.877Z,4.00
2019-05-11T12:02:39.893Z,4.00
2019-05-11T12:03:39.915Z,4.00
2019-05-11T12:04:39.945Z,4.00
2019-05-11T12:05:39.950Z,0.00
2019-05-11T12:06:39.968Z,4.00
2019-05-11T12:07:39.984Z,0.00
2019-05-11T12:08:40.015Z,0.00
2019-05-11T12:09:40.029Z,4.00
2019-05-11T12:10:40.047Z,4.00
2019-05-11T12:11:40.065Z,4.00
2019-05-11T12:12:40.084Z,4.00
2019-05-11T12:13:40.103Z,4.00
2019-05-11T12:14:40.119Z,4.00
2019-05-11T12:15:40.144Z,4.00
2019-05-11T12:16:40.164Z,4.00
2019-05-11T12:17:40.184Z,4.00
2019-05-11T12:18:40.199Z,4.00
2019-05-11T12:19:40.214Z,4.00
2019-05-11T12:20:40.235Z,4.00
2019-05-11T12:21:40.255Z,4.00
2019-05-11T12:22:40.280Z,4.00
2019-05-11T12:23:40.292Z,4.00
2019-05-11T12:24:40.317Z,4.00
2019-05-11T12:25:40.727Z,4.00
2019-05-11T12:26:40.355Z,4.00
2019-05-11T12:27:40.391Z,4.00
2019-05-11T12:28:40.385Z,0.00
2019-05-11T12:29:40.406Z,4.00
2019-05-11T12:30:40.424Z,4.00
2019-05-11T12:31:40.445Z,4.00
2019-05-11T12:32:40.465Z,4.00
2019-05-11T12:33:40.483Z,4.00